sensor_id;sensor_type;location;lat;lon;timestamp;P1;durP1;ratioP1;P2;durP2;ratioP2
37983;SDS011;64625;50.882;4.376;2023-02-15T00:00:22;67.53;;;30.88;;
37983;SDS011;64625;50.882;4.376;2023-02-15T00:02:47;61.35;;;31.20;;
37983;SDS011;64625;50.882;4.376;2023-02-15T00:05:13;71.70;;;35.67;;
37983;SDS011;64625;50.882;4.376;2023-02-15T00:07:39;72.18;;;34.30;;
37983;SDS011;64625;50.882;4.376;2023-02-15T00:10:05;81.97;;;39.33;;
37983;SDS011;64625;50.882;4.376;2023-02-15T00:12:31;87.25;;;37.13;;
37983;SDS011;64625;50.882;4.376;2023-02-15T00:14:57;91.38;;;39.65;;
37983;SDS011;64625;50.882;4.376;2023-02-15T00:17:23;83.10;;;39.72;;
37983;SDS011;64625;50.882;4.376;2023-02-15T00:19:52;83.65;;;40.30;;
37983;SDS011;64625;50.882;4.376;2023-02-15T00:22:18;88.88;;;39.80;;
37983;SDS011;64625;50.882;4.376;2023-02-15T00:24:43;95.50;;;43.70;;
37983;SDS011;64625;50.882;4.376;2023-02-15T00:27:09;99.55;;;40.65;;
37983;SDS011;64625;50.882;4.376;2023-02-15T00:29:35;78.32;;;41.83;;
37983;SDS011;64625;50.882;4.376;2023-02-15T00:32:01;98.18;;;39.75;;
37983;SDS011;64625;50.882;4.376;2023-02-15T00:34:27;93.68;;;40.55;;
37983;SDS011;64625;50.882;4.376;2023-02-15T00:36:53;97.20;;;41.78;;
37983;SDS011;64625;50.882;4.376;2023-02-15T00:39:19;89.13;;;41.60;;
37983;SDS011;64625;50.882;4.376;2023-02-15T00:41:45;91.47;;;40.58;;
37983;SDS011;64625;50.882;4.376;2023-02-15T00:44:12;83.43;;;40.50;;
37983;SDS011;64625;50.882;4.376;2023-02-15T00:46:38;84.00;;;39.08;;
37983;SDS011;64625;50.882;4.376;2023-02-15T00:49:04;85.20;;;38.05;;
37983;SDS011;64625;50.882;4.376;2023-02-15T00:51:31;96.28;;;43.92;;
37983;SDS011;64625;50.882;4.376;2023-02-15T00:53:57;89.13;;;39.67;;
37983;SDS011;64625;50.882;4.376;2023-02-15T00:56:23;89.97;;;39.00;;
37983;SDS011;64625;50.882;4.376;2023-02-15T00:58:49;81.32;;;41.22;;
37983;SDS011;64625;50.882;4.376;2023-02-15T01:01:16;67.82;;;36.83;;
37983;SDS011;64625;50.882;4.376;2023-02-15T01:03:43;81.07;;;34.50;;
37983;SDS011;64625;50.882;4.376;2023-02-15T01:06:14;85.32;;;37.05;;
37983;SDS011;64625;50.882;4.376;2023-02-15T01:08:43;75.90;;;36.05;;
37983;SDS011;64625;50.882;4.376;2023-02-15T01:11:11;80.53;;;40.45;;
37983;SDS011;64625;50.882;4.376;2023-02-15T01:13:39;83.95;;;39.20;;
37983;SDS011;64625;50.882;4.376;2023-02-15T01:16:05;94.38;;;40.17;;
37983;SDS011;64625;50.882;4.376;2023-02-15T01:18:32;84.13;;;37.83;;
37983;SDS011;64625;50.882;4.376;2023-02-15T01:20:58;71.40;;;33.80;;
37983;SDS011;64625;50.882;4.376;2023-02-15T01:23:23;87.10;;;39.03;;
37983;SDS011;64625;50.882;4.376;2023-02-15T01:25:49;77.78;;;37.83;;
37983;SDS011;64625;50.882;4.376;2023-02-15T01:28:15;77.93;;;36.65;;
37983;SDS011;64625;50.882;4.376;2023-02-15T01:30:41;103.00;;;43.55;;
37983;SDS011;64625;50.882;4.376;2023-02-15T01:33:07;89.57;;;40.97;;
37983;SDS011;64625;50.882;4.376;2023-02-15T01:35:33;92.65;;;39.85;;
37983;SDS011;64625;50.882;4.376;2023-02-15T01:37:58;90.47;;;41.15;;
37983;SDS011;64625;50.882;4.376;2023-02-15T01:40:24;82.22;;;40.53;;
37983;SDS011;64625;50.882;4.376;2023-02-15T01:42:51;99.15;;;44.03;;
37983;SDS011;64625;50.882;4.376;2023-02-15T01:45:28;87.03;;;40.78;;
37983;SDS011;64625;50.882;4.376;2023-02-15T01:50:52;94.25;;;39.38;;
37983;SDS011;64625;50.882;4.376;2023-02-15T01:53:25;92.45;;;41.47;;
37983;SDS011;64625;50.882;4.376;2023-02-15T01:56:12;89.65;;;41.35;;
37983;SDS011;64625;50.882;4.376;2023-02-15T01:58:47;85.75;;;42.13;;
37983;SDS011;64625;50.882;4.376;2023-02-15T02:01:14;86.22;;;39.72;;
37983;SDS011;64625;50.882;4.376;2023-02-15T02:03:43;88.03;;;39.40;;
37983;SDS011;64625;50.882;4.376;2023-02-15T02:06:29;83.22;;;38.67;;
37983;SDS011;64625;50.882;4.376;2023-02-15T02:08:57;89.50;;;43.92;;
37983;SDS011;64625;50.882;4.376;2023-02-15T02:11:24;88.40;;;38.25;;
37983;SDS011;64625;50.882;4.376;2023-02-15T02:13:50;94.72;;;42.90;;
37983;SDS011;64625;50.882;4.376;2023-02-15T02:34:51;70.38;;;35.08;;
37983;SDS011;64625;50.882;4.376;2023-02-15T02:45:58;85.18;;;37.22;;
37983;SDS011;64625;50.882;4.376;2023-02-15T02:48:29;94.00;;;38.13;;
37983;SDS011;64625;50.882;4.376;2023-02-15T02:50:57;83.70;;;38.40;;
37983;SDS011;64625;50.882;4.376;2023-02-15T02:53:23;87.20;;;37.58;;
37983;SDS011;64625;50.882;4.376;2023-02-15T02:55:56;79.18;;;37.00;;
37983;SDS011;64625;50.882;4.376;2023-02-15T02:58:39;74.47;;;34.65;;
37983;SDS011;64625;50.882;4.376;2023-02-15T03:01:18;83.93;;;36.22;;
37983;SDS011;64625;50.882;4.376;2023-02-15T03:04:03;73.97;;;36.13;;
37983;SDS011;64625;50.882;4.376;2023-02-15T03:06:39;82.45;;;35.05;;
37983;SDS011;64625;50.882;4.376;2023-02-15T03:09:08;93.30;;;36.08;;
37983;SDS011;64625;50.882;4.376;2023-02-15T03:11:41;76.25;;;35.00;;
37983;SDS011;64625;50.882;4.376;2023-02-15T03:14:09;87.85;;;34.28;;
37983;SDS011;64625;50.882;4.376;2023-02-15T03:16:37;93.25;;;36.40;;
37983;SDS011;64625;50.882;4.376;2023-02-15T03:19:07;114.90;;;40.67;;
37983;SDS011;64625;50.882;4.376;2023-02-15T03:21:51;77.30;;;36.88;;
37983;SDS011;64625;50.882;4.376;2023-02-15T03:24:32;94.82;;;37.03;;
37983;SDS011;64625;50.882;4.376;2023-02-15T03:27:04;77.95;;;34.78;;
37983;SDS011;64625;50.882;4.376;2023-02-15T03:29:34;80.55;;;35.55;;
37983;SDS011;64625;50.882;4.376;2023-02-15T03:32:03;80.97;;;34.70;;
37983;SDS011;64625;50.882;4.376;2023-02-15T03:34:32;83.72;;;37.45;;
37983;SDS011;64625;50.882;4.376;2023-02-15T03:39:38;86.18;;;38.75;;
37983;SDS011;64625;50.882;4.376;2023-02-15T03:45:08;82.70;;;33.85;;
37983;SDS011;64625;50.882;4.376;2023-02-15T03:47:40;75.03;;;36.67;;
37983;SDS011;64625;50.882;4.376;2023-02-15T03:50:17;78.33;;;37.53;;
37983;SDS011;64625;50.882;4.376;2023-02-15T03:53:16;74.85;;;37.78;;
37983;SDS011;64625;50.882;4.376;2023-02-15T03:55:47;73.07;;;35.40;;
37983;SDS011;64625;50.882;4.376;2023-02-15T03:58:14;79.15;;;35.13;;
37983;SDS011;64625;50.882;4.376;2023-02-15T04:00:59;78.03;;;34.35;;
37983;SDS011;64625;50.882;4.376;2023-02-15T04:03:50;65.00;;;32.10;;
37983;SDS011;64625;50.882;4.376;2023-02-15T04:06:28;67.63;;;32.53;;
37983;SDS011;64625;50.882;4.376;2023-02-15T04:08:53;59.75;;;32.67;;
37983;SDS011;64625;50.882;4.376;2023-02-15T04:11:38;70.50;;;32.28;;
37983;SDS011;64625;50.882;4.376;2023-02-15T04:14:03;80.35;;;36.70;;
37983;SDS011;64625;50.882;4.376;2023-02-15T04:16:49;71.57;;;34.70;;
37983;SDS011;64625;50.882;4.376;2023-02-15T04:19:15;76.53;;;33.97;;
37983;SDS011;64625;50.882;4.376;2023-02-15T04:21:59;75.35;;;34.55;;
37983;SDS011;64625;50.882;4.376;2023-02-15T04:24:43;71.00;;;33.03;;
37983;SDS011;64625;50.882;4.376;2023-02-15T04:27:28;62.97;;;31.77;;
37983;SDS011;64625;50.882;4.376;2023-02-15T04:29:53;62.72;;;34.28;;
37983;SDS011;64625;50.882;4.376;2023-02-15T04:32:19;69.55;;;34.28;;
37983;SDS011;64625;50.882;4.376;2023-02-15T04:34:45;58.67;;;32.78;;
37983;SDS011;64625;50.882;4.376;2023-02-15T04:37:11;74.75;;;31.48;;
37983;SDS011;64625;50.882;4.376;2023-02-15T04:39:36;69.10;;;31.38;;
37983;SDS011;64625;50.882;4.376;2023-02-15T04:42:02;57.38;;;29.70;;
37983;SDS011;64625;50.882;4.376;2023-02-15T04:44:28;66.35;;;30.52;;
37983;SDS011;64625;50.882;4.376;2023-02-15T04:46:54;67.28;;;32.88;;
37983;SDS011;64625;50.882;4.376;2023-02-15T04:49:20;66.53;;;34.60;;
37983;SDS011;64625;50.882;4.376;2023-02-15T04:51:45;61.35;;;30.15;;
37983;SDS011;64625;50.882;4.376;2023-02-15T04:54:11;52.75;;;30.15;;
37983;SDS011;64625;50.882;4.376;2023-02-15T04:56:37;65.88;;;32.55;;
37983;SDS011;64625;50.882;4.376;2023-02-15T04:59:04;73.13;;;32.97;;
37983;SDS011;64625;50.882;4.376;2023-02-15T05:01:30;66.30;;;32.97;;
37983;SDS011;64625;50.882;4.376;2023-02-15T05:03:56;70.07;;;32.28;;
37983;SDS011;64625;50.882;4.376;2023-02-15T05:06:21;66.85;;;32.13;;
37983;SDS011;64625;50.882;4.376;2023-02-15T05:08:47;64.80;;;31.30;;
37983;SDS011;64625;50.882;4.376;2023-02-15T05:11:13;69.60;;;32.65;;
37983;SDS011;64625;50.882;4.376;2023-02-15T05:13:39;64.15;;;33.15;;
37983;SDS011;64625;50.882;4.376;2023-02-15T05:16:04;62.80;;;31.60;;
37983;SDS011;64625;50.882;4.376;2023-02-15T05:18:30;70.05;;;31.27;;
37983;SDS011;64625;50.882;4.376;2023-02-15T05:20:56;71.63;;;35.78;;
37983;SDS011;64625;50.882;4.376;2023-02-15T05:23:22;70.22;;;30.00;;
37983;SDS011;64625;50.882;4.376;2023-02-15T05:25:48;66.18;;;34.05;;
37983;SDS011;64625;50.882;4.376;2023-02-15T05:28:33;76.22;;;35.53;;
37983;SDS011;64625;50.882;4.376;2023-02-15T05:31:07;61.10;;;30.92;;
37983;SDS011;64625;50.882;4.376;2023-02-15T05:33:50;67.93;;;32.97;;
37983;SDS011;64625;50.882;4.376;2023-02-15T05:36:16;77.70;;;31.50;;
37983;SDS011;64625;50.882;4.376;2023-02-15T05:38:41;67.45;;;31.77;;
37983;SDS011;64625;50.882;4.376;2023-02-15T05:41:10;64.70;;;32.00;;
37983;SDS011;64625;50.882;4.376;2023-02-15T05:43:36;67.97;;;34.92;;
37983;SDS011;64625;50.882;4.376;2023-02-15T05:46:03;65.70;;;31.80;;
37983;SDS011;64625;50.882;4.376;2023-02-15T05:48:29;71.05;;;35.15;;
37983;SDS011;64625;50.882;4.376;2023-02-15T05:51:09;72.60;;;33.42;;
37983;SDS011;64625;50.882;4.376;2023-02-15T05:53:41;69.28;;;31.08;;
37983;SDS011;64625;50.882;4.376;2023-02-15T05:56:07;68.10;;;30.85;;
37983;SDS011;64625;50.882;4.376;2023-02-15T05:58:35;69.97;;;33.15;;
37983;SDS011;64625;50.882;4.376;2023-02-15T06:01:13;65.10;;;32.53;;
37983;SDS011;64625;50.882;4.376;2023-02-15T06:03:42;77.00;;;32.85;;
37983;SDS011;64625;50.882;4.376;2023-02-15T06:06:07;70.82;;;34.03;;
37983;SDS011;64625;50.882;4.376;2023-02-15T06:08:34;64.80;;;32.17;;
37983;SDS011;64625;50.882;4.376;2023-02-15T06:11:01;68.32;;;30.92;;
37983;SDS011;64625;50.882;4.376;2023-02-15T06:13:27;73.75;;;32.70;;
37983;SDS011;64625;50.882;4.376;2023-02-15T06:15:53;73.13;;;32.78;;
37983;SDS011;64625;50.882;4.376;2023-02-15T06:18:19;77.30;;;34.65;;
37983;SDS011;64625;50.882;4.376;2023-02-15T06:20:45;68.40;;;31.88;;
37983;SDS011;64625;50.882;4.376;2023-02-15T06:23:11;91.40;;;35.40;;
37983;SDS011;64625;50.882;4.376;2023-02-15T06:25:38;73.25;;;36.05;;
37983;SDS011;64625;50.882;4.376;2023-02-15T06:28:04;77.47;;;35.38;;
37983;SDS011;64625;50.882;4.376;2023-02-15T06:30:30;69.70;;;34.50;;
37983;SDS011;64625;50.882;4.376;2023-02-15T06:32:56;77.00;;;34.55;;
37983;SDS011;64625;50.882;4.376;2023-02-15T06:35:22;76.30;;;35.53;;
37983;SDS011;64625;50.882;4.376;2023-02-15T06:37:48;73.53;;;32.63;;
37983;SDS011;64625;50.882;4.376;2023-02-15T06:40:14;80.78;;;35.50;;
37983;SDS011;64625;50.882;4.376;2023-02-15T06:42:41;74.60;;;33.47;;
37983;SDS011;64625;50.882;4.376;2023-02-15T06:45:07;69.03;;;31.75;;
37983;SDS011;64625;50.882;4.376;2023-02-15T06:47:35;70.57;;;32.58;;
37983;SDS011;64625;50.882;4.376;2023-02-15T06:50:01;70.35;;;33.63;;
37983;SDS011;64625;50.882;4.376;2023-02-15T06:52:27;78.65;;;36.90;;
37983;SDS011;64625;50.882;4.376;2023-02-15T06:54:54;74.95;;;35.22;;
37983;SDS011;64625;50.882;4.376;2023-02-15T06:57:20;69.90;;;35.47;;
37983;SDS011;64625;50.882;4.376;2023-02-15T06:59:46;68.50;;;35.10;;
37983;SDS011;64625;50.882;4.376;2023-02-15T07:02:12;72.05;;;33.35;;
37983;SDS011;64625;50.882;4.376;2023-02-15T07:04:38;70.80;;;34.45;;
37983;SDS011;64625;50.882;4.376;2023-02-15T07:07:04;73.55;;;34.25;;
37983;SDS011;64625;50.882;4.376;2023-02-15T07:09:34;70.00;;;35.05;;
37983;SDS011;64625;50.882;4.376;2023-02-15T07:11:59;76.28;;;36.13;;
37983;SDS011;64625;50.882;4.376;2023-02-15T07:14:44;85.57;;;37.70;;
37983;SDS011;64625;50.882;4.376;2023-02-15T07:17:10;82.63;;;36.42;;
37983;SDS011;64625;50.882;4.376;2023-02-15T07:19:36;72.70;;;36.13;;
37983;SDS011;64625;50.882;4.376;2023-02-15T07:22:02;70.57;;;35.03;;
37983;SDS011;64625;50.882;4.376;2023-02-15T07:24:30;72.47;;;33.10;;
37983;SDS011;64625;50.882;4.376;2023-02-15T07:26:56;69.20;;;32.83;;
37983;SDS011;64625;50.882;4.376;2023-02-15T07:29:22;76.55;;;35.15;;
37983;SDS011;64625;50.882;4.376;2023-02-15T07:31:49;64.63;;;33.63;;
37983;SDS011;64625;50.882;4.376;2023-02-15T07:34:15;75.47;;;33.67;;
37983;SDS011;64625;50.882;4.376;2023-02-15T07:36:41;78.45;;;33.97;;
37983;SDS011;64625;50.882;4.376;2023-02-15T07:39:09;62.80;;;34.65;;
37983;SDS011;64625;50.882;4.376;2023-02-15T07:41:35;69.55;;;34.08;;
37983;SDS011;64625;50.882;4.376;2023-02-15T07:44:01;83.55;;;35.83;;
37983;SDS011;64625;50.882;4.376;2023-02-15T07:46:27;75.60;;;35.13;;
37983;SDS011;64625;50.882;4.376;2023-02-15T07:48:53;76.63;;;36.10;;
37983;SDS011;64625;50.882;4.376;2023-02-15T07:51:19;79.85;;;36.05;;
37983;SDS011;64625;50.882;4.376;2023-02-15T07:53:45;74.75;;;34.95;;
37983;SDS011;64625;50.882;4.376;2023-02-15T07:56:12;77.88;;;37.08;;
37983;SDS011;64625;50.882;4.376;2023-02-15T07:58:39;85.97;;;36.67;;
37983;SDS011;64625;50.882;4.376;2023-02-15T08:01:18;83.70;;;35.63;;
37983;SDS011;64625;50.882;4.376;2023-02-15T08:04:05;81.38;;;40.15;;
37983;SDS011;64625;50.882;4.376;2023-02-15T08:06:33;78.18;;;36.70;;
37983;SDS011;64625;50.882;4.376;2023-02-15T08:09:02;84.88;;;38.15;;
37983;SDS011;64625;50.882;4.376;2023-02-15T08:11:30;72.70;;;36.08;;
37983;SDS011;64625;50.882;4.376;2023-02-15T08:16:41;78.47;;;35.00;;
37983;SDS011;64625;50.882;4.376;2023-02-15T08:19:28;68.35;;;32.90;;
37983;SDS011;64625;50.882;4.376;2023-02-15T08:22:00;72.35;;;35.05;;
37983;SDS011;64625;50.882;4.376;2023-02-15T08:24:30;69.45;;;33.72;;
37983;SDS011;64625;50.882;4.376;2023-02-15T08:26:58;70.25;;;35.50;;
37983;SDS011;64625;50.882;4.376;2023-02-15T08:29:25;82.15;;;39.83;;
37983;SDS011;64625;50.882;4.376;2023-02-15T08:31:53;88.45;;;39.53;;
37983;SDS011;64625;50.882;4.376;2023-02-15T08:34:27;102.47;;;39.28;;
37983;SDS011;64625;50.882;4.376;2023-02-15T08:36:54;80.65;;;40.38;;
37983;SDS011;64625;50.882;4.376;2023-02-15T08:39:20;92.13;;;40.03;;
37983;SDS011;64625;50.882;4.376;2023-02-15T08:41:47;79.53;;;38.58;;
37983;SDS011;64625;50.882;4.376;2023-02-15T08:44:14;74.97;;;36.10;;
37983;SDS011;64625;50.882;4.376;2023-02-15T08:46:42;77.30;;;36.20;;
37983;SDS011;64625;50.882;4.376;2023-02-15T08:49:09;70.80;;;36.65;;
37983;SDS011;64625;50.882;4.376;2023-02-15T08:51:38;87.43;;;37.90;;
37983;SDS011;64625;50.882;4.376;2023-02-15T08:54:05;74.15;;;38.63;;
37983;SDS011;64625;50.882;4.376;2023-02-15T08:56:34;76.65;;;37.00;;
37983;SDS011;64625;50.882;4.376;2023-02-15T08:59:04;74.07;;;37.20;;
37983;SDS011;64625;50.882;4.376;2023-02-15T09:01:32;72.38;;;33.55;;
37983;SDS011;64625;50.882;4.376;2023-02-15T09:04:01;63.55;;;31.60;;
37983;SDS011;64625;50.882;4.376;2023-02-15T09:06:29;72.32;;;33.47;;
37983;SDS011;64625;50.882;4.376;2023-02-15T09:08:55;73.10;;;35.08;;
37983;SDS011;64625;50.882;4.376;2023-02-15T09:11:26;76.68;;;34.10;;
37983;SDS011;64625;50.882;4.376;2023-02-15T09:14:03;65.15;;;34.40;;
37983;SDS011;64625;50.882;4.376;2023-02-15T09:16:32;76.28;;;36.00;;
37983;SDS011;64625;50.882;4.376;2023-02-15T09:18:59;80.25;;;34.50;;
37983;SDS011;64625;50.882;4.376;2023-02-15T09:21:31;75.13;;;35.25;;
37983;SDS011;64625;50.882;4.376;2023-02-15T09:24:01;74.32;;;32.40;;
37983;SDS011;64625;50.882;4.376;2023-02-15T09:26:30;73.15;;;32.15;;
37983;SDS011;64625;50.882;4.376;2023-02-15T09:28:58;83.57;;;35.05;;
37983;SDS011;64625;50.882;4.376;2023-02-15T09:33:57;88.07;;;34.55;;
37983;SDS011;64625;50.882;4.376;2023-02-15T09:36:27;80.30;;;35.20;;
37983;SDS011;64625;50.882;4.376;2023-02-15T09:38:57;76.45;;;34.10;;
37983;SDS011;64625;50.882;4.376;2023-02-15T10:01:52;64.00;;;30.02;;
37983;SDS011;64625;50.882;4.376;2023-02-15T10:07:28;74.13;;;33.30;;
37983;SDS011;64625;50.882;4.376;2023-02-15T10:21:01;63.30;;;28.35;;
37983;SDS011;64625;50.882;4.376;2023-02-15T10:26:38;66.45;;;27.75;;
37983;SDS011;64625;50.882;4.376;2023-02-15T10:29:14;60.75;;;27.55;;
37983;SDS011;64625;50.882;4.376;2023-02-15T10:48:12;72.05;;;27.60;;
37983;SDS011;64625;50.882;4.376;2023-02-15T10:50:55;68.53;;;26.63;;
37983;SDS011;64625;50.882;4.376;2023-02-15T10:53:26;68.32;;;28.58;;
37983;SDS011;64625;50.882;4.376;2023-02-15T11:07:24;69.65;;;29.92;;
37983;SDS011;64625;50.882;4.376;2023-02-15T11:10:05;69.30;;;26.75;;
37983;SDS011;64625;50.882;4.376;2023-02-15T11:12:52;63.92;;;25.42;;
37983;SDS011;64625;50.882;4.376;2023-02-15T11:15:30;69.13;;;27.88;;
37983;SDS011;64625;50.882;4.376;2023-02-15T11:18:25;64.35;;;26.67;;
37983;SDS011;64625;50.882;4.376;2023-02-15T11:21:10;66.38;;;30.10;;
37983;SDS011;64625;50.882;4.376;2023-02-15T11:23:42;72.60;;;27.67;;
37983;SDS011;64625;50.882;4.376;2023-02-15T11:29:13;73.57;;;27.33;;
37983;SDS011;64625;50.882;4.376;2023-02-15T11:31:53;60.45;;;27.60;;
37983;SDS011;64625;50.882;4.376;2023-02-15T11:34:35;47.97;;;25.05;;
37983;SDS011;64625;50.882;4.376;2023-02-15T11:37:10;58.53;;;26.48;;
37983;SDS011;64625;50.882;4.376;2023-02-15T11:39:39;59.75;;;25.42;;
37983;SDS011;64625;50.882;4.376;2023-02-15T11:42:13;52.63;;;25.45;;
37983;SDS011;64625;50.882;4.376;2023-02-15T11:44:59;59.55;;;27.00;;
37983;SDS011;64625;50.882;4.376;2023-02-15T11:47:35;60.17;;;27.75;;
37983;SDS011;64625;50.882;4.376;2023-02-15T11:50:01;59.03;;;26.92;;
37983;SDS011;64625;50.882;4.376;2023-02-15T11:52:28;64.22;;;32.38;;
37983;SDS011;64625;50.882;4.376;2023-02-15T11:54:54;64.18;;;28.00;;
37983;SDS011;64625;50.882;4.376;2023-02-15T11:57:25;65.10;;;27.80;;
37983;SDS011;64625;50.882;4.376;2023-02-15T12:00:09;75.78;;;28.48;;
37983;SDS011;64625;50.882;4.376;2023-02-15T12:03:13;65.65;;;29.13;;
37983;SDS011;64625;50.882;4.376;2023-02-15T12:06:05;60.25;;;28.88;;
37983;SDS011;64625;50.882;4.376;2023-02-15T12:08:38;61.42;;;29.80;;
37983;SDS011;64625;50.882;4.376;2023-02-15T12:11:12;69.13;;;31.13;;
37983;SDS011;64625;50.882;4.376;2023-02-15T12:19:13;70.95;;;33.85;;
37983;SDS011;64625;50.882;4.376;2023-02-15T12:22:05;62.15;;;29.98;;
37983;SDS011;64625;50.882;4.376;2023-02-15T12:27:11;68.90;;;31.55;;
37983;SDS011;64625;50.882;4.376;2023-02-15T12:29:40;76.15;;;30.30;;
37983;SDS011;64625;50.882;4.376;2023-02-15T12:32:10;65.88;;;31.40;;
37983;SDS011;64625;50.882;4.376;2023-02-15T12:35:12;73.35;;;31.98;;
37983;SDS011;64625;50.882;4.376;2023-02-15T12:37:51;66.75;;;32.38;;
37983;SDS011;64625;50.882;4.376;2023-02-15T12:40:24;101.25;;;35.45;;
37983;SDS011;64625;50.882;4.376;2023-02-15T12:42:53;69.50;;;33.00;;
37983;SDS011;64625;50.882;4.376;2023-02-15T12:45:29;64.95;;;29.75;;
37983;SDS011;64625;50.882;4.376;2023-02-15T12:50:41;76.18;;;31.98;;
37983;SDS011;64625;50.882;4.376;2023-02-15T12:53:16;75.22;;;30.58;;
37983;SDS011;64625;50.882;4.376;2023-02-15T12:55:53;74.38;;;32.03;;
37983;SDS011;64625;50.882;4.376;2023-02-15T12:58:25;72.30;;;31.85;;
37983;SDS011;64625;50.882;4.376;2023-02-15T13:03:33;67.50;;;30.87;;
37983;SDS011;64625;50.882;4.376;2023-02-15T13:06:00;68.82;;;30.85;;
37983;SDS011;64625;50.882;4.376;2023-02-15T13:08:31;69.50;;;34.28;;
37983;SDS011;64625;50.882;4.376;2023-02-15T13:11:06;73.45;;;32.15;;
37983;SDS011;64625;50.882;4.376;2023-02-15T13:13:56;78.20;;;33.78;;
37983;SDS011;64625;50.882;4.376;2023-02-15T13:16:32;69.90;;;33.03;;
37983;SDS011;64625;50.882;4.376;2023-02-15T13:19:10;67.35;;;32.97;;
37983;SDS011;64625;50.882;4.376;2023-02-15T13:21:52;72.03;;;30.27;;
37983;SDS011;64625;50.882;4.376;2023-02-15T13:24:26;80.90;;;33.30;;
37983;SDS011;64625;50.882;4.376;2023-02-15T13:27:05;73.47;;;29.20;;
37983;SDS011;64625;50.882;4.376;2023-02-15T13:29:39;70.28;;;32.65;;
37983;SDS011;64625;50.882;4.376;2023-02-15T13:32:30;64.32;;;30.00;;
37983;SDS011;64625;50.882;4.376;2023-02-15T13:35:01;69.43;;;31.15;;
37983;SDS011;64625;50.882;4.376;2023-02-15T13:40:14;69.07;;;30.52;;
37983;SDS011;64625;50.882;4.376;2023-02-15T13:45:38;69.65;;;31.27;;
37983;SDS011;64625;50.882;4.376;2023-02-15T13:51:21;62.42;;;32.13;;
37983;SDS011;64625;50.882;4.376;2023-02-15T13:54:02;62.17;;;29.10;;
37983;SDS011;64625;50.882;4.376;2023-02-15T14:10:43;65.45;;;32.20;;
37983;SDS011;64625;50.882;4.376;2023-02-15T14:16:24;57.97;;;31.05;;
37983;SDS011;64625;50.882;4.376;2023-02-15T14:30:21;66.47;;;34.22;;
37983;SDS011;64625;50.882;4.376;2023-02-15T14:32:57;77.28;;;34.30;;
37983;SDS011;64625;50.882;4.376;2023-02-15T14:35:28;65.82;;;33.25;;
37983;SDS011;64625;50.882;4.376;2023-02-15T14:38:16;58.13;;;33.15;;
37983;SDS011;64625;50.882;4.376;2023-02-15T14:48:45;61.72;;;33.22;;
37983;SDS011;64625;50.882;4.376;2023-02-15T15:02:27;77.90;;;37.40;;
37983;SDS011;64625;50.882;4.376;2023-02-15T15:05:33;70.32;;;38.30;;
37983;SDS011;64625;50.882;4.376;2023-02-15T15:08:02;69.63;;;35.58;;
37983;SDS011;64625;50.882;4.376;2023-02-15T15:10:37;78.07;;;35.20;;
37983;SDS011;64625;50.882;4.376;2023-02-15T15:16:23;82.25;;;38.97;;
37983;SDS011;64625;50.882;4.376;2023-02-15T15:47:13;75.05;;;36.53;;
37983;SDS011;64625;50.882;4.376;2023-02-15T15:49:54;80.55;;;37.15;;
37983;SDS011;64625;50.882;4.376;2023-02-15T15:52:25;68.70;;;36.07;;
37983;SDS011;64625;50.882;4.376;2023-02-15T15:54:56;72.82;;;35.35;;
37983;SDS011;64625;50.882;4.376;2023-02-15T15:57:41;73.47;;;36.78;;
37983;SDS011;64625;50.882;4.376;2023-02-15T16:02:51;75.78;;;36.55;;
37983;SDS011;64625;50.882;4.376;2023-02-15T16:05:18;75.35;;;35.33;;
37983;SDS011;64625;50.882;4.376;2023-02-15T16:07:44;84.03;;;38.47;;
37983;SDS011;64625;50.882;4.376;2023-02-15T16:10:24;81.68;;;36.60;;
37983;SDS011;64625;50.882;4.376;2023-02-15T16:12:52;76.55;;;36.80;;
37983;SDS011;64625;50.882;4.376;2023-02-15T16:15:20;72.80;;;35.80;;
37983;SDS011;64625;50.882;4.376;2023-02-15T16:17:50;78.63;;;35.88;;
37983;SDS011;64625;50.882;4.376;2023-02-15T16:20:22;75.37;;;33.30;;
37983;SDS011;64625;50.882;4.376;2023-02-15T16:22:53;64.80;;;34.17;;
37983;SDS011;64625;50.882;4.376;2023-02-15T16:25:37;71.93;;;35.00;;
37983;SDS011;64625;50.882;4.376;2023-02-15T16:28:23;76.97;;;34.42;;
37983;SDS011;64625;50.882;4.376;2023-02-15T16:31:22;82.22;;;34.92;;
37983;SDS011;64625;50.882;4.376;2023-02-15T16:33:42;86.25;;;33.65;;
37983;SDS011;64625;50.882;4.376;2023-02-15T16:36:20;74.43;;;35.38;;
37983;SDS011;64625;50.882;4.376;2023-02-15T16:41:23;64.78;;;32.38;;
37983;SDS011;64625;50.882;4.376;2023-02-15T16:43:55;71.95;;;35.85;;
37983;SDS011;64625;50.882;4.376;2023-02-15T16:46:31;63.47;;;33.35;;
37983;SDS011;64625;50.882;4.376;2023-02-15T16:49:02;76.50;;;34.72;;
37983;SDS011;64625;50.882;4.376;2023-02-15T16:51:32;65.72;;;32.58;;
37983;SDS011;64625;50.882;4.376;2023-02-15T16:54:06;83.97;;;36.10;;
37983;SDS011;64625;50.882;4.376;2023-02-15T16:56:33;92.13;;;34.97;;
37983;SDS011;64625;50.882;4.376;2023-02-15T16:59:01;86.40;;;34.47;;
37983;SDS011;64625;50.882;4.376;2023-02-15T17:01:29;77.20;;;34.78;;
37983;SDS011;64625;50.882;4.376;2023-02-15T17:07:33;82.05;;;37.55;;
37983;SDS011;64625;50.882;4.376;2023-02-15T17:09:52;78.15;;;39.78;;
37983;SDS011;64625;50.882;4.376;2023-02-15T17:15:25;80.45;;;38.78;;
37983;SDS011;64625;50.882;4.376;2023-02-15T17:17:58;75.38;;;36.92;;
37983;SDS011;64625;50.882;4.376;2023-02-15T17:20:30;81.07;;;36.70;;
37983;SDS011;64625;50.882;4.376;2023-02-15T17:22:58;88.13;;;39.78;;
37983;SDS011;64625;50.882;4.376;2023-02-15T17:25:31;72.47;;;36.92;;
37983;SDS011;64625;50.882;4.376;2023-02-15T17:28:04;79.18;;;38.40;;
37983;SDS011;64625;50.882;4.376;2023-02-15T17:30:40;66.50;;;35.47;;
37983;SDS011;64625;50.882;4.376;2023-02-15T17:33:17;71.95;;;35.85;;
37983;SDS011;64625;50.882;4.376;2023-02-15T17:36:03;82.00;;;38.42;;
37983;SDS011;64625;50.882;4.376;2023-02-15T17:38:33;95.88;;;40.15;;
37983;SDS011;64625;50.882;4.376;2023-02-15T17:41:00;71.25;;;36.58;;
37983;SDS011;64625;50.882;4.376;2023-02-15T17:43:26;70.72;;;35.15;;
37983;SDS011;64625;50.882;4.376;2023-02-15T17:45:52;78.22;;;36.38;;
37983;SDS011;64625;50.882;4.376;2023-02-15T17:51:03;69.78;;;33.42;;
37983;SDS011;64625;50.882;4.376;2023-02-15T17:53:31;69.90;;;33.90;;
37983;SDS011;64625;50.882;4.376;2023-02-15T17:55:58;73.25;;;36.53;;
37983;SDS011;64625;50.882;4.376;2023-02-15T17:58:24;81.47;;;38.65;;
37983;SDS011;64625;50.882;4.376;2023-02-15T18:00:50;84.15;;;37.42;;
37983;SDS011;64625;50.882;4.376;2023-02-15T18:03:45;73.80;;;36.42;;
37983;SDS011;64625;50.882;4.376;2023-02-15T18:06:31;82.07;;;38.75;;
37983;SDS011;64625;50.882;4.376;2023-02-15T18:09:18;75.63;;;37.97;;
37983;SDS011;64625;50.882;4.376;2023-02-15T18:14:46;71.13;;;36.75;;
37983;SDS011;64625;50.882;4.376;2023-02-15T18:17:13;78.63;;;35.88;;
37983;SDS011;64625;50.882;4.376;2023-02-15T18:19:41;76.68;;;36.72;;
37983;SDS011;64625;50.882;4.376;2023-02-15T18:22:09;85.13;;;40.53;;
37983;SDS011;64625;50.882;4.376;2023-02-15T18:24:36;69.68;;;36.50;;
37983;SDS011;64625;50.882;4.376;2023-02-15T18:27:03;68.05;;;34.30;;
37983;SDS011;64625;50.882;4.376;2023-02-15T18:29:29;73.30;;;33.88;;
37983;SDS011;64625;50.882;4.376;2023-02-15T18:31:56;72.15;;;35.92;;